sensor_id;sensor_type;location;lat;lon;timestamp;temperature;humidity
46336;DHT22;31365;48.858;8.530;2022-12-15T00:00:16;-0.50;99.90
46336;DHT22;31365;48.858;8.530;2022-12-15T00:03:06;-0.50;99.90
46336;DHT22;31365;48.858;8.530;2022-12-15T00:05:53;-0.50;99.90
46336;DHT22;31365;48.858;8.530;2022-12-15T00:08:39;-0.60;99.90
46336;DHT22;31365;48.858;8.530;2022-12-15T00:11:26;-0.50;99.90
46336;DHT22;31365;48.858;8.530;2022-12-15T00:14:13;-0.50;99.90
46336;DHT22;31365;48.858;8.530;2022-12-15T00:16:59;-0.50;99.90
46336;DHT22;31365;48.858;8.530;2022-12-15T00:19:45;-0.50;99.90
46336;DHT22;31365;48.858;8.530;2022-12-15T00:22:31;-0.50;99.90
46336;DHT22;31365;48.858;8.530;2022-12-15T00:25:17;-0.50;99.90
46336;DHT22;31365;48.858;8.530;2022-12-15T00:28:04;-0.60;99.90
46336;DHT22;31365;48.858;8.530;2022-12-15T00:30:51;-0.60;99.90
46336;DHT22;31365;48.858;8.530;2022-12-15T00:33:37;-0.60;99.90
46336;DHT22;31365;48.858;8.530;2022-12-15T00:36:23;-0.50;99.90
46336;DHT22;31365;48.858;8.530;2022-12-15T00:39:09;-0.50;99.90
46336;DHT22;31365;48.858;8.530;2022-12-15T00:41:37;-0.40;99.90
46336;DHT22;31365;48.858;8.530;2022-12-15T00:44:06;-0.40;99.90
46336;DHT22;31365;48.858;8.530;2022-12-15T00:46:35;-0.40;99.90
46336;DHT22;31365;48.858;8.530;2022-12-15T00:49:22;-0.40;99.90
46336;DHT22;31365;48.858;8.530;2022-12-15T00:52:08;-0.50;99.90
46336;DHT22;31365;48.858;8.530;2022-12-15T00:54:56;-0.50;99.90
46336;DHT22;31365;48.858;8.530;2022-12-15T00:57:42;-0.50;99.90
46336;DHT22;31365;48.858;8.530;2022-12-15T01:00:29;-0.50;99.90
46336;DHT22;31365;48.858;8.530;2022-12-15T01:03:20;-0.60;99.90
46336;DHT22;31365;48.858;8.530;2022-12-15T01:06:09;-0.60;99.90
46336;DHT22;31365;48.858;8.530;2022-12-15T01:08:57;-0.70;99.90
46336;DHT22;31365;48.858;8.530;2022-12-15T01:11:43;-0.70;99.90
46336;DHT22;31365;48.858;8.530;2022-12-15T01:14:31;-0.70;99.90
46336;DHT22;31365;48.858;8.530;2022-12-15T01:17:17;-0.60;99.90
46336;DHT22;31365;48.858;8.530;2022-12-15T01:20:06;-0.60;99.90
46336;DHT22;31365;48.858;8.530;2022-12-15T01:22:45;-0.60;99.90
46336;DHT22;31365;48.858;8.530;2022-12-15T01:25:15;-0.50;99.90
46336;DHT22;31365;48.858;8.530;2022-12-15T01:27:45;-0.60;99.90
46336;DHT22;31365;48.858;8.530;2022-12-15T01:30:15;-0.50;99.90
46336;DHT22;31365;48.858;8.530;2022-12-15T01:32:45;-0.50;99.90
46336;DHT22;31365;48.858;8.530;2022-12-15T01:35:15;-0.50;99.90
46336;DHT22;31365;48.858;8.530;2022-12-15T01:37:44;-0.40;99.90
46336;DHT22;31365;48.858;8.530;2022-12-15T01:40:17;-0.50;99.90
46336;DHT22;31365;48.858;8.530;2022-12-15T01:43:10;-0.50;99.90
46336;DHT22;31365;48.858;8.530;2022-12-15T01:45:53;-0.50;99.90
46336;DHT22;31365;48.858;8.530;2022-12-15T01:48:27;-0.50;99.90
46336;DHT22;31365;48.858;8.530;2022-12-15T01:51:08;-0.50;99.90
46336;DHT22;31365;48.858;8.530;2022-12-15T01:53:52;-0.50;99.90
46336;DHT22;31365;48.858;8.530;2022-12-15T01:56:22;-0.60;99.90
46336;DHT22;31365;48.858;8.530;2022-12-15T01:59:04;-0.60;99.90
46336;DHT22;31365;48.858;8.530;2022-12-15T02:01:37;-0.60;99.90
46336;DHT22;31365;48.858;8.530;2022-12-15T02:04:09;-0.30;99.90
46336;DHT22;31365;48.858;8.530;2022-12-15T02:06:39;-0.70;99.90
46336;DHT22;31365;48.858;8.530;2022-12-15T02:09:08;-0.70;99.90
46336;DHT22;31365;48.858;8.530;2022-12-15T02:11:43;-0.60;99.90
46336;DHT22;31365;48.858;8.530;2022-12-15T02:14:31;-0.80;99.90
46336;DHT22;31365;48.858;8.530;2022-12-15T02:17:20;-0.60;99.90
46336;DHT22;31365;48.858;8.530;2022-12-15T02:27:22;-0.60;99.90
46336;DHT22;31365;48.858;8.530;2022-12-15T02:30:21;-0.60;99.90
46336;DHT22;31365;48.858;8.530;2022-12-15T02:33:02;-0.40;99.90
46336;DHT22;31365;48.858;8.530;2022-12-15T02:35:45;-0.60;99.90
46336;DHT22;31365;48.858;8.530;2022-12-15T02:38:28;-0.60;99.90
46336;DHT22;31365;48.858;8.530;2022-12-15T02:40:59;-0.50;99.90
46336;DHT22;31365;48.858;8.530;2022-12-15T02:43:31;-0.40;99.90
46336;DHT22;31365;48.858;8.530;2022-12-15T02:46:14;-0.40;99.90
46336;DHT22;31365;48.858;8.530;2022-12-15T02:48:58;-0.40;99.90
46336;DHT22;31365;48.858;8.530;2022-12-15T02:51:43;-0.50;99.90
46336;DHT22;31365;48.858;8.530;2022-12-15T02:57:38;-0.30;99.90
46336;DHT22;31365;48.858;8.530;2022-12-15T03:00:11;-0.40;99.90
46336;DHT22;31365;48.858;8.530;2022-12-15T03:02:47;-0.40;99.90
46336;DHT22;31365;48.858;8.530;2022-12-15T03:05:19;-0.30;99.90
46336;DHT22;31365;48.858;8.530;2022-12-15T03:07:50;-0.40;99.90
46336;DHT22;31365;48.858;8.530;2022-12-15T03:10:22;-0.40;99.90
46336;DHT22;31365;48.858;8.530;2022-12-15T03:12:52;-0.40;99.90
46336;DHT22;31365;48.858;8.530;2022-12-15T03:15:21;-0.40;99.90
46336;DHT22;31365;48.858;8.530;2022-12-15T03:17:51;-0.40;99.90
46336;DHT22;31365;48.858;8.530;2022-12-15T03:20:19;-0.50;99.90
46336;DHT22;31365;48.858;8.530;2022-12-15T03:22:47;-0.50;99.90
46336;DHT22;31365;48.858;8.530;2022-12-15T03:25:15;-0.50;99.90
46336;DHT22;31365;48.858;8.530;2022-12-15T03:27:44;-0.50;99.90
46336;DHT22;31365;48.858;8.530;2022-12-15T03:30:13;-0.50;99.90
46336;DHT22;31365;48.858;8.530;2022-12-15T03:32:42;-0.40;99.90
46336;DHT22;31365;48.858;8.530;2022-12-15T03:35:12;-0.40;99.90
46336;DHT22;31365;48.858;8.530;2022-12-15T03:37:41;-0.20;99.90
46336;DHT22;31365;48.858;8.530;2022-12-15T03:40:11;-0.40;99.90
46336;DHT22;31365;48.858;8.530;2022-12-15T03:42:43;-0.40;99.90
46336;DHT22;31365;48.858;8.530;2022-12-15T03:45:20;-0.40;99.90
46336;DHT22;31365;48.858;8.530;2022-12-15T03:47:51;-0.40;99.90
46336;DHT22;31365;48.858;8.530;2022-12-15T03:50:24;-0.40;99.90
46336;DHT22;31365;48.858;8.530;2022-12-15T03:52:57;-0.40;99.90
46336;DHT22;31365;48.858;8.530;2022-12-15T03:55:27;-0.40;99.90
46336;DHT22;31365;48.858;8.530;2022-12-15T03:57:57;-0.50;99.90
46336;DHT22;31365;48.858;8.530;2022-12-15T04:00:27;-0.50;99.90
46336;DHT22;31365;48.858;8.530;2022-12-15T04:02:56;-0.40;99.90
46336;DHT22;31365;48.858;8.530;2022-12-15T04:05:28;-0.40;99.90
46336;DHT22;31365;48.858;8.530;2022-12-15T04:07:59;-0.40;99.90
46336;DHT22;31365;48.858;8.530;2022-12-15T04:10:30;-0.30;99.90
46336;DHT22;31365;48.858;8.530;2022-12-15T04:13:03;-0.40;99.90
46336;DHT22;31365;48.858;8.530;2022-12-15T04:15:33;-0.50;99.90
46336;DHT22;31365;48.858;8.530;2022-12-15T04:18:04;-0.50;99.90
46336;DHT22;31365;48.858;8.530;2022-12-15T04:20:35;0.10;99.90
46336;DHT22;31365;48.858;8.530;2022-12-15T04:23:03;-0.40;99.90
46336;DHT22;31365;48.858;8.530;2022-12-15T04:25:34;-0.30;99.90
46336;DHT22;31365;48.858;8.530;2022-12-15T04:28:21;-0.40;99.90
46336;DHT22;31365;48.858;8.530;2022-12-15T04:31:09;-0.40;99.90
46336;DHT22;31365;48.858;8.530;2022-12-15T04:33:58;-0.40;99.90
46336;DHT22;31365;48.858;8.530;2022-12-15T04:36:51;-0.30;99.90
46336;DHT22;31365;48.858;8.530;2022-12-15T04:39:40;-0.40;99.90
46336;DHT22;31365;48.858;8.530;2022-12-15T04:42:29;-0.40;99.90
46336;DHT22;31365;48.858;8.530;2022-12-15T04:45:19;-0.40;99.90
46336;DHT22;31365;48.858;8.530;2022-12-15T04:48:07;-0.40;99.90
46336;DHT22;31365;48.858;8.530;2022-12-15T04:50:53;-0.40;99.90
46336;DHT22;31365;48.858;8.530;2022-12-15T04:53:43;-0.50;99.90
46336;DHT22;31365;48.858;8.530;2022-12-15T04:56:30;-0.40;99.90
46336;DHT22;31365;48.858;8.530;2022-12-15T04:59:16;-0.40;99.90
46336;DHT22;31365;48.858;8.530;2022-12-15T05:02:03;-0.40;99.90
46336;DHT22;31365;48.858;8.530;2022-12-15T05:04:49;-0.40;99.90
46336;DHT22;31365;48.858;8.530;2022-12-15T05:07:35;-0.50;99.90
46336;DHT22;31365;48.858;8.530;2022-12-15T05:10:23;-0.50;99.90
46336;DHT22;31365;48.858;8.530;2022-12-15T05:13:09;-0.40;99.90
46336;DHT22;31365;48.858;8.530;2022-12-15T05:15:56;-0.40;99.90
46336;DHT22;31365;48.858;8.530;2022-12-15T05:18:42;-0.40;99.90
46336;DHT22;31365;48.858;8.530;2022-12-15T05:21:28;-0.40;99.90
46336;DHT22;31365;48.858;8.530;2022-12-15T05:24:14;-0.40;99.90
46336;DHT22;31365;48.858;8.530;2022-12-15T05:27:01;-0.40;99.90
46336;DHT22;31365;48.858;8.530;2022-12-15T05:29:47;-0.40;99.90
46336;DHT22;31365;48.858;8.530;2022-12-15T05:32:33;-0.40;99.90
46336;DHT22;31365;48.858;8.530;2022-12-15T05:35:01;-0.40;99.90
46336;DHT22;31365;48.858;8.530;2022-12-15T05:37:31;-0.40;99.90
46336;DHT22;31365;48.858;8.530;2022-12-15T05:39:59;-0.40;99.90
46336;DHT22;31365;48.858;8.530;2022-12-15T05:42:29;-0.40;99.90
46336;DHT22;31365;48.858;8.530;2022-12-15T05:44:57;-0.40;99.90
46336;DHT22;31365;48.858;8.530;2022-12-15T05:47:25;-0.40;99.90
46336;DHT22;31365;48.858;8.530;2022-12-15T05:49:53;-0.40;99.90
46336;DHT22;31365;48.858;8.530;2022-12-15T05:52:22;-0.40;99.90
46336;DHT22;31365;48.858;8.530;2022-12-15T05:54:50;-0.50;99.90
46336;DHT22;31365;48.858;8.530;2022-12-15T05:57:18;-0.50;99.90
46336;DHT22;31365;48.858;8.530;2022-12-15T05:59:49;-0.40;99.90
46336;DHT22;31365;48.858;8.530;2022-12-15T06:02:17;-0.40;99.90
46336;DHT22;31365;48.858;8.530;2022-12-15T06:04:45;-0.50;99.90
46336;DHT22;31365;48.858;8.530;2022-12-15T06:07:14;-0.50;99.90
46336;DHT22;31365;48.858;8.530;2022-12-15T06:09:42;-0.50;99.90
46336;DHT22;31365;48.858;8.530;2022-12-15T06:12:11;-0.50;99.90
46336;DHT22;31365;48.858;8.530;2022-12-15T06:14:40;-0.50;99.90
46336;DHT22;31365;48.858;8.530;2022-12-15T06:17:09;-0.50;99.90
46336;DHT22;31365;48.858;8.530;2022-12-15T06:19:37;-0.50;99.90
46336;DHT22;31365;48.858;8.530;2022-12-15T06:22:07;-0.50;99.90
46336;DHT22;31365;48.858;8.530;2022-12-15T06:24:36;-0.50;99.90
46336;DHT22;31365;48.858;8.530;2022-12-15T06:27:06;-0.60;99.90
46336;DHT22;31365;48.858;8.530;2022-12-15T06:29:34;-0.50;99.90
46336;DHT22;31365;48.858;8.530;2022-12-15T06:32:03;-0.50;99.90
46336;DHT22;31365;48.858;8.530;2022-12-15T06:34:33;-0.50;99.90
46336;DHT22;31365;48.858;8.530;2022-12-15T06:37:01;-0.50;99.90
46336;DHT22;31365;48.858;8.530;2022-12-15T06:39:30;-0.50;99.90
46336;DHT22;31365;48.858;8.530;2022-12-15T06:41:58;-0.40;99.90
46336;DHT22;31365;48.858;8.530;2022-12-15T06:44:27;-0.40;99.90
46336;DHT22;31365;48.858;8.530;2022-12-15T06:46:55;-0.40;99.90
46336;DHT22;31365;48.858;8.530;2022-12-15T06:49:24;-0.40;99.90
46336;DHT22;31365;48.858;8.530;2022-12-15T06:51:54;-0.40;99.90
46336;DHT22;31365;48.858;8.530;2022-12-15T06:54:22;-0.30;99.90
46336;DHT22;31365;48.858;8.530;2022-12-15T06:56:50;-0.30;99.90
46336;DHT22;31365;48.858;8.530;2022-12-15T06:59:19;-0.30;99.90
46336;DHT22;31365;48.858;8.530;2022-12-15T07:01:48;-0.30;99.90
46336;DHT22;31365;48.858;8.530;2022-12-15T07:04:17;-0.30;99.90
46336;DHT22;31365;48.858;8.530;2022-12-15T07:06:46;-0.30;99.90
46336;DHT22;31365;48.858;8.530;2022-12-15T07:09:16;-0.30;99.90
46336;DHT22;31365;48.858;8.530;2022-12-15T07:11:45;-0.30;99.90
46336;DHT22;31365;48.858;8.530;2022-12-15T07:14:16;-0.20;99.90
46336;DHT22;31365;48.858;8.530;2022-12-15T07:16:44;-0.30;99.90
46336;DHT22;31365;48.858;8.530;2022-12-15T07:19:14;-0.30;99.90
46336;DHT22;31365;48.858;8.530;2022-12-15T07:21:42;-0.20;99.90
46336;DHT22;31365;48.858;8.530;2022-12-15T07:24:11;-0.20;99.90
46336;DHT22;31365;48.858;8.530;2022-12-15T07:26:41;-0.20;99.90
46336;DHT22;31365;48.858;8.530;2022-12-15T07:29:14;-0.20;99.90
46336;DHT22;31365;48.858;8.530;2022-12-15T07:31:49;-0.20;99.90
46336;DHT22;31365;48.858;8.530;2022-12-15T07:34:17;-0.20;99.90
46336;DHT22;31365;48.858;8.530;2022-12-15T07:36:46;-0.20;99.90
46336;DHT22;31365;48.858;8.530;2022-12-15T07:39:18;-0.10;99.90
46336;DHT22;31365;48.858;8.530;2022-12-15T07:41:48;-0.10;99.90
46336;DHT22;31365;48.858;8.530;2022-12-15T07:44:17;-0.10;99.90
46336;DHT22;31365;48.858;8.530;2022-12-15T07:46:46;-0.10;99.90
46336;DHT22;31365;48.858;8.530;2022-12-15T07:49:15;-0.10;99.90
46336;DHT22;31365;48.858;8.530;2022-12-15T07:51:44;-0.10;99.90
46336;DHT22;31365;48.858;8.530;2022-12-15T07:54:13;0.00;99.90
46336;DHT22;31365;48.858;8.530;2022-12-15T07:56:42;0.00;99.90
46336;DHT22;31365;48.858;8.530;2022-12-15T07:59:17;0.10;99.90
46336;DHT22;31365;48.858;8.530;2022-12-15T08:01:47;0.10;99.90
46336;DHT22;31365;48.858;8.530;2022-12-15T08:04:16;0.20;99.90
46336;DHT22;31365;48.858;8.530;2022-12-15T08:06:45;0.60;99.90
46336;DHT22;31365;48.858;8.530;2022-12-15T08:09:14;0.20;99.90
46336;DHT22;31365;48.858;8.530;2022-12-15T08:11:42;0.20;99.90
46336;DHT22;31365;48.858;8.530;2022-12-15T08:14:10;0.20;99.90
46336;DHT22;31365;48.858;8.530;2022-12-15T08:16:45;0.20;99.90
46336;DHT22;31365;48.858;8.530;2022-12-15T08:19:15;0.20;99.90
46336;DHT22;31365;48.858;8.530;2022-12-15T08:21:45;0.20;99.90
46336;DHT22;31365;48.858;8.530;2022-12-15T08:24:14;0.30;99.90
46336;DHT22;31365;48.858;8.530;2022-12-15T08:26:45;0.40;99.90
46336;DHT22;31365;48.858;8.530;2022-12-15T08:29:16;0.40;99.90
46336;DHT22;31365;48.858;8.530;2022-12-15T08:32:06;0.30;99.90
46336;DHT22;31365;48.858;8.530;2022-12-15T08:34:34;0.50;99.90
46336;DHT22;31365;48.858;8.530;2022-12-15T08:37:03;0.60;99.90
46336;DHT22;31365;48.858;8.530;2022-12-15T08:39:31;0.60;99.90
46336;DHT22;31365;48.858;8.530;2022-12-15T08:41:59;0.60;99.90
46336;DHT22;31365;48.858;8.530;2022-12-15T08:44:29;0.60;99.90
46336;DHT22;31365;48.858;8.530;2022-12-15T08:46:57;0.60;99.90
46336;DHT22;31365;48.858;8.530;2022-12-15T08:49:27;0.60;99.90
46336;DHT22;31365;48.858;8.530;2022-12-15T08:51:55;0.60;99.90
46336;DHT22;31365;48.858;8.530;2022-12-15T08:54:23;0.50;99.90
46336;DHT22;31365;48.858;8.530;2022-12-15T08:56:52;0.50;99.90
46336;DHT22;31365;48.858;8.530;2022-12-15T08:59:21;0.50;99.90
46336;DHT22;31365;48.858;8.530;2022-12-15T09:01:50;0.50;99.90
46336;DHT22;31365;48.858;8.530;2022-12-15T09:04:19;0.50;99.90
46336;DHT22;31365;48.858;8.530;2022-12-15T09:06:49;0.50;99.90
46336;DHT22;31365;48.858;8.530;2022-12-15T09:09:19;0.40;99.90
46336;DHT22;31365;48.858;8.530;2022-12-15T09:11:48;0.40;99.90
46336;DHT22;31365;48.858;8.530;2022-12-15T09:14:17;0.50;99.90
46336;DHT22;31365;48.858;8.530;2022-12-15T09:16:55;0.60;99.90
46336;DHT22;31365;48.858;8.530;2022-12-15T09:19:24;0.60;99.90
46336;DHT22;31365;48.858;8.530;2022-12-15T09:21:54;0.60;99.90
46336;DHT22;31365;48.858;8.530;2022-12-15T09:24:22;0.70;99.90
46336;DHT22;31365;48.858;8.530;2022-12-15T09:27:01;0.80;99.90
46336;DHT22;31365;48.858;8.530;2022-12-15T09:29:30;0.90;99.90
46336;DHT22;31365;48.858;8.530;2022-12-15T09:32:00;1.00;99.90
46336;DHT22;31365;48.858;8.530;2022-12-15T09:34:36;1.00;99.90
46336;DHT22;31365;48.858;8.530;2022-12-15T09:37:06;1.10;99.90
46336;DHT22;31365;48.858;8.530;2022-12-15T09:39:34;1.10;99.90
46336;DHT22;31365;48.858;8.530;2022-12-15T09:42:04;1.10;99.90
46336;DHT22;31365;48.858;8.530;2022-12-15T09:44:46;1.10;99.90
46336;DHT22;31365;48.858;8.530;2022-12-15T09:47:19;1.20;99.90
46336;DHT22;31365;48.858;8.530;2022-12-15T09:49:54;1.20;99.90
46336;DHT22;31365;48.858;8.530;2022-12-15T09:52:27;1.10;99.90
46336;DHT22;31365;48.858;8.530;2022-12-15T09:54:59;1.10;99.90
46336;DHT22;31365;48.858;8.530;2022-12-15T09:57:35;1.10;99.90
46336;DHT22;31365;48.858;8.530;2022-12-15T10:00:16;1.10;99.90
46336;DHT22;31365;48.858;8.530;2022-12-15T10:03:12;1.10;99.90
46336;DHT22;31365;48.858;8.530;2022-12-15T10:06:03;1.30;99.90
46336;DHT22;31365;48.858;8.530;2022-12-15T10:08:49;1.40;99.90
46336;DHT22;31365;48.858;8.530;2022-12-15T10:11:35;1.50;99.90
46336;DHT22;31365;48.858;8.530;2022-12-15T10:14:36;1.50;99.90
46336;DHT22;31365;48.858;8.530;2022-12-15T10:17:18;1.60;99.90
46336;DHT22;31365;48.858;8.530;2022-12-15T10:19:52;1.70;99.90
46336;DHT22;31365;48.858;8.530;2022-12-15T10:22:30;1.90;99.90
46336;DHT22;31365;48.858;8.530;2022-12-15T10:25:14;2.00;99.90
46336;DHT22;31365;48.858;8.530;2022-12-15T10:28:23;2.10;99.90
46336;DHT22;31365;48.858;8.530;2022-12-15T10:31:15;2.20;99.90
46336;DHT22;31365;48.858;8.530;2022-12-15T10:33:56;2.20;99.90
46336;DHT22;31365;48.858;8.530;2022-12-15T10:36:32;2.30;99.90
46336;DHT22;31365;48.858;8.530;2022-12-15T10:39:01;2.40;99.90
46336;DHT22;31365;48.858;8.530;2022-12-15T10:41:32;2.60;99.90
46336;DHT22;31365;48.858;8.530;2022-12-15T10:44:01;2.90;99.90
46336;DHT22;31365;48.858;8.530;2022-12-15T10:46:29;3.00;99.90
46336;DHT22;31365;48.858;8.530;2022-12-15T10:49:15;3.10;99.90
46336;DHT22;31365;48.858;8.530;2022-12-15T10:51:53;3.20;99.90
46336;DHT22;31365;48.858;8.530;2022-12-15T10:54:26;3.20;99.90
46336;DHT22;31365;48.858;8.530;2022-12-15T11:39:58;2.30;99.90
46336;DHT22;31365;48.858;8.530;2022-12-15T11:42:52;2.30;99.90
46336;DHT22;31365;48.858;8.530;2022-12-15T11:45:38;2.20;99.90
46336;DHT22;31365;48.858;8.530;2022-12-15T11:48:16;2.30;99.90
46336;DHT22;31365;48.858;8.530;2022-12-15T11:50:53;2.20;99.90
46336;DHT22;31365;48.858;8.530;2022-12-15T11:53:40;2.20;99.90
46336;DHT22;31365;48.858;8.530;2022-12-15T11:56:31;2.20;99.90
46336;DHT22;31365;48.858;8.530;2022-12-15T11:59:34;2.10;99.90
46336;DHT22;31365;48.858;8.530;2022-12-15T12:02:37;2.10;99.90
46336;DHT22;31365;48.858;8.530;2022-12-15T12:05:34;2.10;99.90
46336;DHT22;31365;48.858;8.530;2022-12-15T12:08:16;2.20;99.90
46336;DHT22;31365;48.858;8.530;2022-12-15T12:11:06;2.20;99.90
46336;DHT22;31365;48.858;8.530;2022-12-15T12:13:51;2.20;99.90
46336;DHT22;31365;48.858;8.530;2022-12-15T12:16:39;2.20;99.90
46336;DHT22;31365;48.858;8.530;2022-12-15T12:19:17;2.10;99.90
46336;DHT22;31365;48.858;8.530;2022-12-15T12:21:55;2.10;99.90
46336;DHT22;31365;48.858;8.530;2022-12-15T12:24:30;2.20;99.90
46336;DHT22;31365;48.858;8.530;2022-12-15T12:27:30;2.20;99.90
46336;DHT22;31365;48.858;8.530;2022-12-15T12:30:12;2.30;99.90
46336;DHT22;31365;48.858;8.530;2022-12-15T12:32:52;2.40;99.90
46336;DHT22;31365;48.858;8.530;2022-12-15T12:35:31;2.40;99.90
46336;DHT22;31365;48.858;8.530;2022-12-15T12:38:25;2.60;99.90
46336;DHT22;31365;48.858;8.530;2022-12-15T12:41:02;2.60;99.90
46336;DHT22;31365;48.858;8.530;2022-12-15T12:43:37;2.50;99.90
46336;DHT22;31365;48.858;8.530;2022-12-15T12:46:19;2.60;99.90
46336;DHT22;31365;48.858;8.530;2022-12-15T12:48:54;2.70;99.90
46336;DHT22;31365;48.858;8.530;2022-12-15T12:51:28;2.60;99.90
46336;DHT22;31365;48.858;8.530;2022-12-15T12:54:00;2.70;99.90
46336;DHT22;31365;48.858;8.530;2022-12-15T12:56:35;2.80;99.90
46336;DHT22;31365;48.858;8.530;2022-12-15T12:59:31;2.90;99.90
46336;DHT22;31365;48.858;8.530;2022-12-15T13:02:42;3.00;99.90
46336;DHT22;31365;48.858;8.530;2022-12-15T13:05:29;3.10;99.90
46336;DHT22;31365;48.858;8.530;2022-12-15T13:08:25;3.20;99.90
46336;DHT22;31365;48.858;8.530;2022-12-15T13:14:47;3.30;99.90
46336;DHT22;31365;48.858;8.530;2022-12-15T13:17:37;3.30;99.90
46336;DHT22;31365;48.858;8.530;2022-12-15T13:20:21;3.50;99.90
46336;DHT22;31365;48.858;8.530;2022-12-15T13:22:52;3.40;99.90
46336;DHT22;31365;48.858;8.530;2022-12-15T13:25:45;3.40;99.90
46336;DHT22;31365;48.858;8.530;2022-12-15T13:28:51;3.30;99.90
46336;DHT22;31365;48.858;8.530;2022-12-15T13:31:41;3.20;99.90
46336;DHT22;31365;48.858;8.530;2022-12-15T13:34:20;3.10;99.90
46336;DHT22;31365;48.858;8.530;2022-12-15T13:36:57;2.90;99.90
46336;DHT22;31365;48.858;8.530;2022-12-15T13:39:33;2.90;99.90
46336;DHT22;31365;48.858;8.530;2022-12-15T13:42:31;2.70;99.90
46336;DHT22;31365;48.858;8.530;2022-12-15T13:45:48;2.60;99.90
46336;DHT22;31365;48.858;8.530;2022-12-15T13:48:27;2.60;99.90
46336;DHT22;31365;48.858;8.530;2022-12-15T13:51:04;2.40;99.90
46336;DHT22;31365;48.858;8.530;2022-12-15T13:53:47;2.40;99.90
46336;DHT22;31365;48.858;8.530;2022-12-15T13:56:39;2.20;99.90
46336;DHT22;31365;48.858;8.530;2022-12-15T13:59:23;2.20;99.90
46336;DHT22;31365;48.858;8.530;2022-12-15T14:01:56;2.10;99.90
46336;DHT22;31365;48.858;8.530;2022-12-15T14:04:25;2.10;99.90
46336;DHT22;31365;48.858;8.530;2022-12-15T14:06:57;2.00;99.90
46336;DHT22;31365;48.858;8.530;2022-12-15T14:09:32;2.00;99.90
46336;DHT22;31365;48.858;8.530;2022-12-15T14:12:06;1.90;99.90
46336;DHT22;31365;48.858;8.530;2022-12-15T14:14:42;1.90;99.90
46336;DHT22;31365;48.858;8.530;2022-12-15T14:17:16;1.80;99.90
46336;DHT22;31365;48.858;8.530;2022-12-15T14:19:47;1.80;99.90
46336;DHT22;31365;48.858;8.530;2022-12-15T14:22:20;1.80;99.90
46336;DHT22;31365;48.858;8.530;2022-12-15T14:25:01;1.70;99.90
46336;DHT22;31365;48.858;8.530;2022-12-15T14:27:39;1.60;99.90
46336;DHT22;31365;48.858;8.530;2022-12-15T14:30:26;1.60;99.90
46336;DHT22;31365;48.858;8.530;2022-12-15T14:32:58;1.60;99.90
46336;DHT22;31365;48.858;8.530;2022-12-15T14:35:30;1.50;99.90
46336;DHT22;31365;48.858;8.530;2022-12-15T14:38:06;1.40;99.90
46336;DHT22;31365;48.858;8.530;2022-12-15T14:40:41;1.40;99.90
46336;DHT22;31365;48.858;8.530;2022-12-15T14:43:18;1.30;99.90
46336;DHT22;31365;48.858;8.530;2022-12-15T14:45:53;1.30;99.90
46336;DHT22;31365;48.858;8.530;2022-12-15T14:48:34;1.30;99.90
46336;DHT22;31365;48.858;8.530;2022-12-15T14:51:09;1.20;99.90
46336;DHT22;31365;48.858;8.530;2022-12-15T14:53:42;1.20;99.90
46336;DHT22;31365;48.858;8.530;2022-12-15T14:56:28;1.20;99.90
46336;DHT22;31365;48.858;8.530;2022-12-15T14:59:00;1.20;99.90
46336;DHT22;31365;48.858;8.530;2022-12-15T15:01:34;1.20;99.90
46336;DHT22;31365;48.858;8.530;2022-12-15T15:04:21;1.10;99.90
46336;DHT22;31365;48.858;8.530;2022-12-15T15:06:53;1.10;99.90
46336;DHT22;31365;48.858;8.530;2022-12-15T17:42:34;0.90;99.90
46336;DHT22;31365;48.858;8.530;2022-12-15T17:45:21;1.10;99.90
46336;DHT22;31365;48.858;8.530;2022-12-15T17:47:51;0.80;99.90
46336;DHT22;31365;48.858;8.530;2022-12-15T17:50:19;0.80;99.90
46336;DHT22;31365;48.858;8.530;2022-12-15T17:52:47;0.70;99.90
46336;DHT22;31365;48.858;8.530;2022-12-15T17:55:19;0.80;99.90
46336;DHT22;31365;48.858;8.530;2022-12-15T17:57:49;0.80;99.90
46336;DHT22;31365;48.858;8.530;2022-12-15T18:00:23;0.80;99.90
46336;DHT22;31365;48.858;8.530;2022-12-15T18:02:54;0.70;99.90
46336;DHT22;31365;48.858;8.530;2022-12-15T18:05:25;0.70;99.90
46336;DHT22;31365;48.858;8.530;2022-12-15T18:07:57;0.70;99.90
46336;DHT22;31365;48.858;8.530;2022-12-15T18:10:30;0.70;99.90
46336;DHT22;31365;48.858;8.530;2022-12-15T18:13:13;0.70;99.90
46336;DHT22;31365;48.858;8.530;2022-12-15T18:15:44;0.70;99.90
46336;DHT22;31365;48.858;8.530;2022-12-15T18:18:15;0.70;99.90
46336;DHT22;31365;48.858;8.530;2022-12-15T18:20:45;0.70;99.90
46336;DHT22;31365;48.858;8.530;2022-12-15T18:23:15;0.60;99.90
46336;DHT22;31365;48.858;8.530;2022-12-15T18:25:48;0.60;99.90
46336;DHT22;31365;48.858;8.530;2022-12-15T18:28:21;0.70;99.90
46336;DHT22;31365;48.858;8.530;2022-12-15T18:30:53;0.60;99.90
46336;DHT22;31365;48.858;8.530;2022-12-15T18:33:22;0.60;99.90
46336;DHT22;31365;48.858;8.530;2022-12-15T18:35:52;0.60;99.90
46336;DHT22;31365;48.858;8.530;2022-12-15T18:38:23;0.60;99.90
46336;DHT22;31365;48.858;8.530;2022-12-15T18:40:54;0.60;99.90
46336;DHT22;31365;48.858;8.530;2022-12-15T18:43:28;0.60;99.90
46336;DHT22;31365;48.858;8.530;2022-12-15T18:45:59;0.60;99.90
46336;DHT22;31365;48.858;8.530;2022-12-15T18:48:31;0.60;99.90
46336;DHT22;31365;48.858;8.530;2022-12-15T18:51:04;0.70;99.90
46336;DHT22;31365;48.858;8.530;2022-12-15T18:53:44;0.70;99.90
46336;DHT22;31365;48.858;8.530;2022-12-15T18:56:15;0.70;99.90
46336;DHT22;31365;48.858;8.530;2022-12-15T18:58:48;0.70;99.90
46336;DHT22;31365;48.858;8.530;2022-12-15T19:01:17;0.70;99.90
46336;DHT22;31365;48.858;8.530;2022-12-15T19:03:50;0.70;99.90
46336;DHT22;31365;48.858;8.530;2022-12-15T19:06:22;0.70;99.90
46336;DHT22;31365;48.858;8.530;2022-12-15T19:09:02;0.60;99.90
46336;DHT22;31365;48.858;8.530;2022-12-15T19:11:32;0.60;99.90
46336;DHT22;31365;48.858;8.530;2022-12-15T19:14:05;0.60;99.90
46336;DHT22;31365;48.858;8.530;2022-12-15T19:17:00;0.60;99.90
46336;DHT22;31365;48.858;8.530;2022-12-15T19:19:43;0.60;99.90
46336;DHT22;31365;48.858;8.530;2022-12-15T19:22:29;0.60;99.90
46336;DHT22;31365;48.858;8.530;2022-12-15T19:24:57;0.60;99.90
46336;DHT22;31365;48.858;8.530;2022-12-15T19:27:27;0.60;99.90
46336;DHT22;31365;48.858;8.530;2022-12-15T19:29:58;0.60;99.90
46336;DHT22;31365;48.858;8.530;2022-12-15T19:32:26;0.60;99.90
46336;DHT22;31365;48.858;8.530;2022-12-15T19:34:54;0.60;99.90
46336;DHT22;31365;48.858;8.530;2022-12-15T19:37:26;0.50;99.90
46336;DHT22;31365;48.858;8.530;2022-12-15T19:39:58;0.60;99.90
46336;DHT22;31365;48.858;8.530;2022-12-15T19:42:30;0.50;99.90
46336;DHT22;31365;48.858;8.530;2022-12-15T19:45:13;0.50;99.90
46336;DHT22;31365;48.858;8.530;2022-12-15T19:47:44;0.40;99.90
46336;DHT22;31365;48.858;8.530;2022-12-15T19:50:14;0.40;99.90
46336;DHT22;31365;48.858;8.530;2022-12-15T19:52:45;0.40;99.90
46336;DHT22;31365;48.858;8.530;2022-12-15T19:55:19;0.30;99.90
46336;DHT22;31365;48.858;8.530;2022-12-15T19:57:52;0.30;99.90
46336;DHT22;31365;48.858;8.530;2022-12-15T20:00:23;0.30;99.90
46336;DHT22;31365;48.858;8.530;2022-12-15T20:02:56;0.20;99.90
46336;DHT22;31365;48.858;8.530;2022-12-15T20:05:25;0.20;99.90
46336;DHT22;31365;48.858;8.530;2022-12-15T20:07:54;0.20;99.90